createdAt,value
2022-08-10T00:01:45.736Z,31.50
2022-08-10T00:04:21.021Z,31.50
2022-08-10T00:06:50.075Z,31.50
2022-08-10T00:09:19.597Z,31.50
2022-08-10T00:11:46.596Z,31.40
2022-08-10T00:14:13.759Z,31.40
2022-08-10T00:16:40.750Z,31.40
2022-08-10T00:19:07.744Z,31.40
2022-08-10T00:21:36.002Z,31.40
2022-08-10T00:24:03.173Z,31.40
2022-08-10T00:27:55.597Z,31.40
2022-08-10T00:29:17.418Z,31.30
2022-08-10T00:31:58.375Z,31.40
2022-08-10T00:34:28.246Z,31.30
2022-08-10T00:36:55.967Z,31.30
2022-08-10T00:39:23.376Z,31.30
2022-08-10T00:42:07.033Z,31.30
2022-08-10T00:44:40.017Z,31.30
2022-08-10T00:47:24.413Z,31.30
2022-08-10T00:49:57.409Z,31.30
2022-08-10T00:52:25.619Z,31.20
2022-08-10T00:54:53.192Z,31.20
2022-08-10T00:57:20.816Z,31.20
2022-08-10T00:59:57.932Z,31.20
2022-08-10T01:02:31.015Z,31.10
2022-08-10T01:05:11.343Z,31.10
2022-08-10T01:08:09.984Z,31.10
2022-08-10T01:10:36.824Z,31.00
2022-08-10T01:13:28.995Z,31.00
2022-08-10T01:15:58.847Z,31.00
2022-08-10T01:18:39.821Z,30.90
2022-08-10T01:22:04.466Z,30.90
2022-08-10T01:25:01.792Z,30.90
2022-08-10T01:27:48.188Z,30.90
2022-08-10T01:30:18.267Z,30.80
2022-08-10T01:32:48.166Z,30.70
2022-08-10T01:35:53.058Z,30.80
2022-08-10T01:38:34.675Z,30.70
2022-08-10T01:41:12.358Z,30.70
2022-08-10T01:43:49.123Z,30.60
2022-08-10T01:46:19.428Z,30.60
2022-08-10T01:48:54.695Z,30.60
2022-08-10T01:51:32.834Z,30.60
2022-08-10T01:54:12.161Z,30.50
2022-08-10T01:56:43.342Z,30.50
2022-08-10T01:59:25.766Z,30.50
2022-08-10T02:01:57.958Z,30.50
2022-08-10T02:04:27.692Z,30.40
2022-08-10T02:06:56.058Z,30.40
2022-08-10T02:09:32.802Z,30.40
2022-08-10T02:12:08.527Z,30.40
2022-08-10T02:14:58.948Z,30.40
2022-08-10T02:18:00.749Z,30.40
2022-08-10T02:20:21.120Z,30.40
2022-08-10T02:22:56.458Z,30.40
2022-08-10T02:25:42.451Z,30.40
2022-08-10T02:28:29.917Z,30.40
2022-08-10T02:31:11.917Z,30.40
2022-08-10T02:33:56.214Z,30.40
2022-08-10T02:36:29.679Z,30.40
2022-08-10T02:39:02.933Z,30.40
2022-08-10T02:42:18.162Z,30.40
2022-08-10T02:45:22.445Z,30.40
2022-08-10T02:47:50.792Z,30.40
2022-08-10T02:50:35.529Z,30.40
2022-08-10T02:53:55.280Z,30.30
2022-08-10T02:56:10.122Z,30.40
2022-08-10T02:58:53.184Z,30.30
2022-08-10T03:01:26.001Z,30.30
2022-08-10T03:04:54.957Z,30.30
2022-08-10T03:07:44.710Z,30.30
2022-08-10T03:10:15.101Z,30.30
2022-08-10T03:12:43.347Z,30.30
2022-08-10T03:15:15.903Z,30.30
2022-08-10T03:17:57.417Z,30.30
2022-08-10T03:20:38.177Z,30.30
2022-08-10T03:23:17.599Z,30.20
2022-08-10T03:25:53.857Z,30.20
2022-08-10T03:28:30.522Z,30.20
2022-08-10T03:31:00.089Z,30.20
2022-08-10T03:33:31.278Z,30.20
2022-08-10T03:36:40.112Z,30.20
2022-08-10T03:38:51.371Z,30.10
2022-08-10T03:41:23.829Z,30.10
2022-08-10T03:43:52.926Z,30.10
2022-08-10T03:46:23.826Z,30.10
2022-08-10T03:48:54.004Z,30.10
2022-08-10T03:51:22.777Z,30.00
2022-08-10T03:54:04.539Z,30.00
2022-08-10T03:56:39.699Z,30.00
2022-08-10T03:59:13.061Z,30.00
2022-08-10T04:02:52.384Z,30.00
2022-08-10T04:04:29.807Z,29.90
2022-08-10T04:06:58.547Z,29.90
2022-08-10T04:09:53.419Z,29.90
2022-08-10T04:12:20.952Z,29.90
2022-08-10T04:14:50.811Z,29.90
2022-08-10T04:18:04.225Z,29.80
2022-08-10T04:20:34.659Z,29.90
2022-08-10T04:23:09.021Z,29.80
2022-08-10T04:25:38.245Z,29.80
2022-08-10T04:28:06.992Z,29.80
2022-08-10T04:30:35.586Z,29.80
2022-08-10T04:33:04.463Z,29.80
2022-08-10T04:35:32.626Z,29.80
2022-08-10T04:38:00.994Z,29.80
2022-08-10T04:40:32.139Z,29.80
2022-08-10T04:43:05.765Z,29.70
2022-08-10T04:45:49.795Z,29.70
2022-08-10T04:48:42.241Z,29.70
2022-08-10T04:51:17.618Z,29.70
2022-08-10T04:54:05.989Z,29.70
2022-08-10T04:56:33.552Z,29.70
2022-08-10T04:59:01.069Z,29.70
2022-08-10T05:02:21.325Z,29.70
2022-08-10T05:04:37.152Z,29.70
2022-08-10T05:07:05.557Z,29.70
2022-08-10T05:09:32.713Z,29.70
2022-08-10T05:11:59.696Z,29.70
2022-08-10T05:14:26.733Z,29.70
2022-08-10T05:16:54.229Z,29.70
2022-08-10T05:20:01.707Z,29.70
2022-08-10T05:22:08.618Z,29.70
2022-08-10T05:24:35.649Z,29.70
2022-08-10T05:27:09.994Z,29.70
2022-08-10T05:29:38.138Z,29.70
2022-08-10T05:32:08.728Z,29.70
2022-08-10T05:34:36.122Z,29.70
2022-08-10T05:37:05.215Z,29.70
2022-08-10T05:39:33.439Z,29.70
2022-08-10T05:42:02.179Z,29.80
2022-08-10T05:44:30.038Z,29.80
2022-08-10T05:46:57.257Z,29.80
2022-08-10T05:49:24.971Z,29.80
2022-08-10T05:51:52.383Z,29.80
2022-08-10T05:54:20.147Z,29.80
2022-08-10T05:56:55.714Z,29.80
2022-08-10T06:00:30.734Z,29.80
2022-08-10T06:02:45.583Z,29.80
2022-08-10T06:05:19.762Z,29.80
2022-08-10T06:07:53.282Z,29.80
2022-08-10T06:10:31.601Z,29.80
2022-08-10T06:13:29.851Z,29.80
2022-08-10T06:16:04.322Z,29.80
2022-08-10T06:18:32.301Z,29.80
2022-08-10T06:21:00.677Z,29.80
2022-08-10T06:23:29.983Z,29.80
2022-08-10T06:26:11.712Z,29.80
2022-08-10T06:28:52.973Z,29.80
2022-08-10T06:31:46.851Z,29.70
2022-08-10T06:34:21.108Z,29.70
2022-08-10T06:36:48.549Z,29.80
2022-08-10T06:39:35.373Z,29.70
2022-08-10T06:42:21.194Z,29.80
2022-08-10T06:45:08.873Z,29.70
2022-08-10T06:47:47.518Z,29.70
2022-08-10T06:50:34.524Z,29.70
2022-08-10T06:53:17.140Z,29.70
2022-08-10T06:55:55.596Z,29.70
2022-08-10T06:58:36.766Z,29.70
2022-08-10T07:01:09.594Z,29.80
2022-08-10T07:03:42.986Z,29.70
2022-08-10T07:06:13.441Z,29.80
2022-08-10T07:08:42.711Z,29.70
2022-08-10T07:11:12.203Z,29.80
2022-08-10T07:14:16.770Z,29.80
2022-08-10T07:16:28.947Z,29.80
2022-08-10T07:19:01.413Z,29.80
2022-08-10T07:21:29.947Z,29.80
2022-08-10T07:24:00.831Z,29.80
2022-08-10T07:26:30.715Z,29.90
2022-08-10T07:28:59.285Z,29.90
2022-08-10T07:31:31.101Z,29.90
2022-08-10T07:34:22.600Z,29.90
2022-08-10T07:37:00.904Z,30.00
2022-08-10T07:39:58.253Z,29.90
2022-08-10T07:42:20.458Z,29.90
2022-08-10T07:44:49.011Z,30.00
2022-08-10T07:47:19.887Z,30.00
2022-08-10T07:50:10.612Z,30.00
2022-08-10T07:52:39.896Z,30.00
2022-08-10T07:55:10.257Z,30.00
2022-08-10T07:57:40.302Z,30.10
2022-08-10T08:00:10.795Z,30.10
2022-08-10T08:02:58.060Z,30.10
2022-08-10T08:05:58.846Z,30.10
2022-08-10T08:08:19.544Z,30.10
2022-08-10T08:10:47.779Z,30.10
2022-08-10T08:13:16.822Z,30.10
2022-08-10T08:16:18.225Z,30.10
2022-08-10T08:18:36.939Z,30.10
2022-08-10T08:24:01.951Z,30.10
2022-08-10T08:24:07.519Z,30.10
2022-08-10T08:26:41.025Z,30.10
2022-08-10T08:29:10.869Z,30.10
2022-08-10T08:32:01.073Z,30.10
2022-08-10T08:34:27.404Z,30.10
2022-08-10T08:36:59.361Z,30.10
2022-08-10T08:39:26.958Z,30.10
2022-08-10T08:42:08.696Z,30.10
2022-08-10T08:45:25.219Z,30.20
2022-08-10T08:48:23.576Z,30.20
2022-08-10T08:52:12.509Z,30.20
2022-08-10T08:54:43.612Z,30.20
2022-08-10T08:57:49.511Z,30.20
2022-08-10T09:00:40.781Z,30.20
2022-08-10T09:03:24.986Z,30.20
2022-08-10T09:06:31.557Z,30.20
2022-08-10T09:09:20.158Z,30.20
2022-08-10T09:11:49.955Z,30.20
2022-08-10T09:14:16.949Z,30.20
2022-08-10T09:17:25.920Z,30.30
2022-08-10T09:20:08.718Z,30.30
2022-08-10T09:22:57.551Z,30.30
2022-08-10T09:25:32.414Z,30.30
2022-08-10T09:28:11.706Z,30.30
2022-08-10T09:36:26.580Z,30.30
2022-08-10T09:37:13.999Z,30.30
2022-08-10T09:40:06.938Z,30.40
2022-08-10T09:43:07.627Z,30.40
2022-08-10T09:46:11.700Z,30.40
2022-08-10T09:48:51.878Z,30.40
2022-08-10T09:51:45.271Z,30.40
2022-08-10T09:54:50.925Z,30.40
2022-08-10T09:57:55.058Z,30.40
2022-08-10T10:00:38.267Z,30.50
2022-08-10T10:03:25.824Z,30.50
2022-08-10T10:06:14.526Z,30.50
2022-08-10T10:09:10.587Z,30.50
2022-08-10T10:12:13.412Z,30.50
2022-08-10T10:15:24.161Z,30.50
2022-08-10T10:18:11.588Z,30.50
2022-08-10T10:21:02.862Z,30.50
2022-08-10T10:24:21.350Z,30.60
2022-08-10T10:26:47.676Z,30.60
2022-08-10T10:29:58.065Z,30.60
2022-08-10T10:32:37.073Z,30.60
2022-08-10T10:35:21.408Z,30.60
2022-08-10T10:38:00.940Z,30.60
2022-08-10T10:40:42.265Z,30.70
2022-08-10T10:43:41.625Z,30.70
2022-08-10T10:46:27.268Z,30.70
2022-08-10T10:49:07.028Z,30.70
2022-08-10T10:51:43.443Z,30.70
2022-08-10T10:54:19.021Z,30.70
2022-08-10T10:56:56.841Z,30.80
2022-08-10T10:59:56.263Z,30.70
2022-08-10T11:02:40.413Z,30.80
2022-08-10T11:05:32.482Z,30.80
2022-08-10T11:08:03.267Z,30.80
2022-08-10T11:10:52.678Z,30.80
2022-08-10T11:14:28.910Z,30.80
2022-08-10T11:16:52.907Z,30.80
2022-08-10T11:20:00.346Z,30.90
2022-08-10T11:23:05.375Z,30.90
2022-08-10T11:25:37.938Z,30.90
2022-08-10T11:28:45.092Z,30.90
2022-08-10T11:31:27.246Z,30.90
2022-08-10T11:34:47.135Z,30.90
2022-08-10T11:37:03.293Z,31.00
2022-08-10T11:39:33.324Z,31.00
2022-08-10T11:42:31.647Z,31.00
2022-08-10T11:45:51.971Z,30.90
2022-08-10T11:48:53.790Z,31.00
2022-08-10T11:51:22.886Z,31.00
2022-08-10T11:53:55.378Z,31.00
2022-08-10T11:56:29.989Z,31.00
2022-08-10T11:59:17.435Z,31.00
2022-08-10T12:01:47.033Z,31.10
2022-08-10T12:04:16.126Z,31.10
2022-08-10T12:07:00.054Z,31.10
2022-08-10T12:10:10.082Z,31.20
2022-08-10T12:12:17.249Z,31.20
2022-08-10T12:14:57.590Z,31.20
2022-08-10T12:17:39.910Z,31.20
2022-08-10T12:20:16.104Z,31.20
2022-08-10T12:23:10.076Z,31.20
2022-08-10T12:25:57.595Z,31.30
2022-08-10T12:28:52.220Z,31.30
2022-08-10T12:31:38.395Z,31.30
2022-08-10T12:34:16.662Z,31.30
2022-08-10T12:36:53.542Z,31.30
2022-08-10T12:39:28.253Z,31.40
2022-08-10T12:41:59.213Z,31.40
2022-08-10T12:44:42.210Z,31.40
2022-08-10T12:47:18.124Z,31.40
2022-08-10T12:50:29.601Z,31.50
2022-08-10T12:53:06.358Z,31.50
2022-08-10T12:55:37.351Z,31.50
2022-08-10T12:58:57.115Z,31.50
2022-08-10T13:01:15.753Z,31.50
2022-08-10T13:04:20.713Z,31.50
2022-08-10T13:06:36.921Z,31.50
2022-08-10T13:09:09.722Z,31.50
2022-08-10T13:12:39.353Z,31.60
2022-08-10T13:14:49.817Z,31.60
2022-08-10T13:17:38.901Z,31.70
2022-08-10T13:20:22.046Z,31.70
2022-08-10T13:22:51.503Z,31.70
2022-08-10T13:25:29.005Z,31.80
2022-08-10T13:28:36.459Z,31.80
2022-08-10T13:30:50.666Z,31.90
2022-08-10T13:34:41.189Z,31.90
2022-08-10T13:36:15.523Z,32.00
2022-08-10T13:38:45.528Z,32.00
2022-08-10T13:41:12.863Z,32.00
2022-08-10T13:43:53.043Z,32.10
2022-08-10T13:46:22.944Z,32.10
2022-08-10T13:48:53.505Z,32.10
2022-08-10T13:51:57.132Z,32.10
2022-08-10T13:54:18.276Z,32.20
2022-08-10T13:56:47.770Z,32.20
2022-08-10T13:59:16.504Z,32.30
2022-08-10T14:01:50.319Z,32.30
2022-08-10T14:04:19.381Z,32.30
2022-08-10T14:06:56.355Z,32.40
2022-08-10T14:09:32.740Z,32.40
2022-08-10T14:12:01.229Z,32.50
2022-08-10T14:14:31.318Z,32.50
2022-08-10T14:17:00.109Z,32.60
2022-08-10T14:19:31.612Z,32.70
2022-08-10T14:22:00.142Z,32.70
2022-08-10T14:24:32.033Z,32.80
2022-08-10T14:27:10.666Z,32.80
2022-08-10T14:29:53.445Z,32.90
2022-08-10T14:32:23.707Z,33.00
2022-08-10T14:36:15.312Z,33.00
2022-08-10T14:37:50.002Z,33.10
2022-08-10T14:40:19.621Z,33.20
2022-08-10T14:42:56.043Z,33.30
2022-08-10T14:45:34.993Z,33.40
2022-08-10T14:48:39.003Z,33.40
2022-08-10T14:51:07.650Z,33.50
2022-08-10T14:53:36.575Z,33.60
2022-08-10T14:56:10.456Z,33.70
2022-08-10T14:58:59.414Z,33.80
2022-08-10T15:02:00.744Z,34.00
2022-08-10T15:04:30.305Z,34.10
2022-08-10T15:07:12.385Z,34.30
2022-08-10T15:10:01.563Z,34.40
2022-08-10T15:12:38.534Z,34.50
2022-08-10T15:15:09.571Z,34.70
2022-08-10T15:17:41.894Z,35.00
2022-08-10T15:20:21.200Z,35.40
2022-08-10T15:23:31.195Z,35.70
2022-08-10T15:26:12.018Z,36.10
2022-08-10T15:29:22.758Z,36.60
2022-08-10T15:32:04.811Z,37.10
2022-08-10T15:34:52.987Z,37.60
2022-08-10T15:37:40.252Z,38.00
2022-08-10T15:40:26.700Z,38.30
2022-08-10T15:43:05.603Z,38.50
2022-08-10T15:46:29.687Z,38.50
2022-08-10T15:49:05.800Z,38.60
2022-08-10T15:51:53.455Z,38.50
2022-08-10T15:54:33.525Z,38.50
2022-08-10T15:57:06.841Z,38.30
2022-08-10T15:59:43.386Z,38.30
2022-08-10T16:02:20.708Z,38.40
2022-08-10T16:05:03.730Z,38.50
2022-08-10T16:07:45.427Z,38.60
2022-08-10T16:10:28.632Z,38.60
2022-08-10T16:13:59.359Z,38.50
2022-08-10T16:15:58.599Z,38.30
2022-08-10T16:18:28.785Z,38.20
2022-08-10T16:21:02.763Z,38.00
2022-08-10T16:23:34.262Z,37.80
2022-08-10T16:26:14.797Z,37.60
2022-08-10T16:29:22.861Z,37.40
2022-08-10T16:31:54.921Z,37.30
2022-08-10T16:34:23.887Z,37.20
2022-08-10T16:37:00.951Z,37.20
2022-08-10T16:39:58.687Z,37.20
2022-08-10T16:42:33.537Z,37.20
2022-08-10T16:45:18.641Z,37.20
2022-08-10T16:47:49.236Z,37.10
2022-08-10T16:50:24.254Z,37.00
2022-08-10T16:52:52.169Z,36.90
2022-08-10T16:55:47.621Z,36.70
2022-08-10T16:58:14.308Z,36.70
2022-08-10T17:00:44.986Z,36.70
2022-08-10T17:03:22.733Z,36.80
2022-08-10T17:06:10.965Z,36.80
2022-08-10T17:08:48.754Z,36.90
2022-08-10T17:11:18.402Z,36.90
2022-08-10T17:13:46.326Z,37.00
2022-08-10T17:16:16.453Z,36.90
2022-08-10T17:18:46.893Z,36.90
2022-08-10T17:21:21.731Z,36.80
2022-08-10T17:23:52.813Z,36.70
2022-08-10T17:26:36.052Z,36.60
2022-08-10T17:29:57.848Z,36.50
2022-08-10T17:32:14.635Z,36.30
2022-08-10T17:34:51.680Z,36.10
2022-08-10T17:37:22.009Z,35.90
2022-08-10T17:40:07.302Z,35.90
2022-08-10T17:42:36.045Z,35.70
2022-08-10T17:45:05.576Z,35.60
2022-08-10T17:47:33.374Z,35.60
2022-08-10T17:50:01.573Z,35.60
2022-08-10T17:52:33.074Z,35.50
2022-08-10T17:55:04.681Z,35.40
2022-08-10T17:57:36.797Z,35.30
2022-08-10T18:00:10.624Z,35.20
2022-08-10T18:02:40.427Z,35.10
2022-08-10T18:05:09.849Z,35.00
2022-08-10T18:07:46.062Z,34.80
2022-08-10T18:10:17.026Z,34.80
2022-08-10T18:12:53.343Z,34.70
2022-08-10T18:15:23.454Z,34.60
2022-08-10T18:17:59.333Z,34.60
2022-08-10T18:20:34.791Z,34.50
2022-08-10T18:23:02.513Z,34.40
2022-08-10T18:25:39.708Z,34.30
2022-08-10T18:28:13.813Z,34.20
2022-08-10T18:31:01.414Z,34.20
2022-08-10T18:33:42.096Z,34.10
2022-08-10T18:36:11.199Z,34.10
2022-08-10T18:38:40.123Z,34.00
2022-08-10T18:41:15.290Z,33.90
2022-08-10T18:44:12.209Z,33.90
2022-08-10T18:47:14.884Z,33.80
2022-08-10T18:49:51.213Z,33.80
2022-08-10T18:52:22.482Z,33.70
2022-08-10T18:54:53.574Z,33.60
2022-08-10T18:57:32.633Z,33.60
2022-08-10T19:00:07.415Z,33.50
2022-08-10T19:02:54.586Z,33.40
2022-08-10T19:05:30.302Z,33.40
2022-08-10T19:08:30.808Z,33.40
2022-08-10T19:11:22.810Z,33.30
2022-08-10T19:14:03.358Z,33.30
2022-08-10T19:16:55.777Z,33.20
2022-08-10T19:19:41.608Z,33.20
2022-08-10T19:22:17.138Z,33.10
2022-08-10T19:24:59.263Z,33.10
2022-08-10T19:27:59.798Z,33.10
2022-08-10T19:30:57.457Z,33.00
2022-08-10T19:33:47.389Z,33.00
2022-08-10T19:36:23.134Z,32.90
2022-08-10T19:39:13.276Z,32.90
2022-08-10T19:42:11.286Z,32.80
2022-08-10T19:44:52.153Z,32.80
2022-08-10T19:47:35.808Z,32.80
2022-08-10T19:50:12.945Z,32.70
2022-08-10T19:53:09.917Z,32.70
2022-08-10T19:55:55.043Z,32.70
2022-08-10T19:58:29.376Z,32.70
2022-08-10T20:01:00.232Z,32.70
2022-08-10T20:03:38.790Z,32.60
2022-08-10T20:06:35.688Z,32.60
2022-08-10T20:09:11.209Z,32.60
2022-08-10T20:12:00.529Z,32.60
2022-08-10T20:14:45.610Z,32.60
2022-08-10T20:17:55.536Z,32.60
2022-08-10T20:20:31.546Z,32.50
2022-08-10T20:23:09.096Z,32.50
2022-08-10T20:25:36.269Z,32.50
2022-08-10T20:28:20.457Z,32.50
2022-08-10T20:31:06.259Z,32.40
2022-08-10T20:34:11.078Z,32.40
2022-08-10T20:36:45.215Z,32.30
2022-08-10T20:39:30.795Z,32.30
2022-08-10T20:42:31.090Z,32.30
2022-08-10T20:45:21.469Z,32.30
2022-08-10T20:48:16.126Z,32.20
2022-08-10T20:50:46.705Z,32.20
2022-08-10T20:53:17.330Z,32.20
2022-08-10T20:55:55.128Z,32.20
2022-08-10T20:58:59.781Z,32.10
2022-08-10T21:02:12.704Z,32.00
2022-08-10T21:05:22.909Z,32.00
2022-08-10T21:08:02.402Z,32.00
2022-08-10T21:10:56.111Z,32.00
2022-08-10T21:13:31.685Z,31.90
2022-08-10T21:16:03.328Z,31.90
2022-08-10T21:18:47.509Z,31.90
2022-08-10T21:22:05.322Z,31.90
2022-08-10T21:24:55.997Z,31.90
2022-08-10T21:27:41.077Z,31.80
2022-08-10T21:30:09.719Z,31.90
2022-08-10T21:32:50.784Z,31.80
2022-08-10T21:35:36.633Z,31.80
2022-08-10T21:38:46.814Z,31.80
2022-08-10T21:41:58.154Z,31.80
2022-08-10T21:45:07.959Z,31.80
2022-08-10T21:48:17.138Z,31.80
2022-08-10T21:51:24.426Z,31.80
2022-08-10T21:54:38.733Z,31.70
2022-08-10T21:57:43.223Z,31.70
2022-08-10T22:00:49.449Z,31.70
2022-08-10T22:03:40.116Z,31.70
2022-08-10T22:06:28.049Z,31.70
2022-08-10T22:09:33.888Z,31.60
2022-08-10T22:12:32.227Z,31.60
2022-08-10T22:16:05.681Z,31.60
2022-08-10T22:19:02.087Z,31.50
2022-08-10T22:22:26.853Z,31.50
2022-08-10T22:25:19.368Z,31.50
2022-08-10T22:28:17.423Z,31.50
2022-08-10T22:31:30.714Z,31.40
2022-08-10T22:34:51.583Z,31.40
2022-08-10T22:37:54.507Z,31.40
2022-08-10T22:40:42.339Z,31.40
2022-08-10T22:43:37.581Z,31.40
2022-08-10T22:46:36.175Z,31.30
2022-08-10T22:49:03.226Z,31.30
2022-08-10T22:52:02.496Z,31.30
2022-08-10T22:55:00.124Z,31.30
2022-08-10T22:57:45.819Z,31.30
2022-08-10T23:00:16.027Z,31.30
2022-08-10T23:02:55.162Z,31.20
2022-08-10T23:05:37.866Z,31.20
2022-08-10T23:08:30.480Z,31.20
2022-08-10T23:11:04.215Z,31.20
2022-08-10T23:13:39.838Z,31.10
2022-08-10T23:16:42.453Z,31.10
2022-08-10T23:19:24.485Z,31.10
2022-08-10T23:22:04.799Z,31.10
2022-08-10T23:24:43.465Z,31.10
2022-08-10T23:27:38.070Z,31.00
2022-08-10T23:30:09.198Z,31.00
2022-08-10T23:32:45.769Z,31.00
2022-08-10T23:36:30.964Z,31.00
2022-08-10T23:38:04.814Z,31.00
2022-08-10T23:40:33.403Z,30.90
2022-08-10T23:43:03.069Z,30.90
2022-08-10T23:45:53.313Z,30.90
2022-08-10T23:48:21.174Z,30.90
2022-08-10T23:50:59.689Z,30.90
2022-08-10T23:53:33.150Z,30.90
2022-08-10T23:56:11.687Z,30.90
2022-08-10T23:58:45.426Z,30.90
